Kalgoorlie Boulder Airport
YPKG : now visible

Airfield :











YOU CAN JOIN US ON...

 
LOGIN :

Register | Disclaimer

   EN    FR    IT 

 









Legend :    VFR   Marginal VFR   IFR   Intensive IFR   Very Intensive IFR
Visi :
Ceiling :
>= 8 km
>= 3000ft
5 to 8 km
1000 to 3000 ft
1500m to 5 km
500 to 1000 ft
800 to 1500m
200 to 500 ft
< 800m
< 200 ft
Symbols :   Thunderstorms  Fog  Heavy snow  Heavy precipitations  Wind > 20 kt






- Airport Elevation : 1203 ft
- IATA code : KGI


YPKG - Kalgoorlie Boulder

CURRENT METAR :
  • 101300Z AUTO 00000KT 9999 // NCD 26/05 Q1019

EXPIRED METARs :
  • 101230Z AUTO 00000KT 9999 // NCD 26/06 Q1019 RF00.0/000.0 PRESENT WEATHER SENSOR US
  • 101200Z AUTO 00000KT 9999 // NCD 27/07 Q1019
  • 101130Z AUTO 06004KT 9999 // NCD 28/07 Q1019 RF00.0/000.0 PRESENT WEATHER SENSOR US
  • 101100Z AUTO 15005KT 9999 // NCD 28/07 Q1018
  • 101030Z AUTO 33004KT 9999 // NCD 29/08 Q1018 RF00.0/000.0 PRESENT WEATHER SENSOR US

TAF TAF YPKG
Valid from the 10 at 12:00 until the 11 at 12:00 UTC


101119Z 1012/1112 VRB03KT CAVOK
FM102000 11010KT 9999 SCT012
FM110000 04007KT CAVOK



MET'MAP, your aeronautical weather chart ! - Copyright ORBIFLY December 2007 - Disclaimer

ORBIFLY MET'MAP TEAM :

Programming & Development : Alexandra Zaïnal
Concept & original design : Baudouin d'Aumeries
Assistance for programming : Marc-Olivier Méhu
Technical & hardware support : Manuel Goepfert

Contact : metmap@orbifly.com




SOURCES & CREDITS :

   NOAA       Earth
Advisory